sensor_id;sensor_type;location;lat;lon;timestamp;P1;durP1;ratioP1;P2;durP2;ratioP2
20928;SDS011;21895;47.072;15.132;2023-06-26T00:01:01;7.60;;;3.60;;
20928;SDS011;21895;47.072;15.132;2023-06-26T00:03:28;6.28;;;2.90;;
20928;SDS011;21895;47.072;15.132;2023-06-26T00:05:55;7.07;;;3.60;;
20928;SDS011;21895;47.072;15.132;2023-06-26T00:08:26;7.07;;;3.60;;
20928;SDS011;21895;47.072;15.132;2023-06-26T00:10:53;4.47;;;3.17;;
20928;SDS011;21895;47.072;15.132;2023-06-26T00:13:21;8.15;;;2.67;;
20928;SDS011;21895;47.072;15.132;2023-06-26T00:15:49;8.90;;;3.15;;
20928;SDS011;21895;47.072;15.132;2023-06-26T00:18:16;6.37;;;3.05;;
20928;SDS011;21895;47.072;15.132;2023-06-26T00:20:43;7.25;;;3.30;;
20928;SDS011;21895;47.072;15.132;2023-06-26T00:23:10;6.37;;;3.00;;
20928;SDS011;21895;47.072;15.132;2023-06-26T00:25:42;6.00;;;3.05;;
20928;SDS011;21895;47.072;15.132;2023-06-26T00:28:09;4.65;;;2.92;;
20928;SDS011;21895;47.072;15.132;2023-06-26T00:30:36;9.23;;;3.12;;
20928;SDS011;21895;47.072;15.132;2023-06-26T00:33:03;7.85;;;3.33;;
20928;SDS011;21895;47.072;15.132;2023-06-26T00:35:29;6.15;;;3.17;;
20928;SDS011;21895;47.072;15.132;2023-06-26T00:37:56;5.20;;;2.70;;
20928;SDS011;21895;47.072;15.132;2023-06-26T00:40:22;6.53;;;3.00;;
20928;SDS011;21895;47.072;15.132;2023-06-26T00:42:49;8.18;;;3.37;;
20928;SDS011;21895;47.072;15.132;2023-06-26T00:45:16;5.25;;;3.00;;
20928;SDS011;21895;47.072;15.132;2023-06-26T00:47:55;3.92;;;2.22;;
20928;SDS011;21895;47.072;15.132;2023-06-26T00:50:22;6.97;;;3.08;;
20928;SDS011;21895;47.072;15.132;2023-06-26T00:52:49;3.97;;;2.72;;
20928;SDS011;21895;47.072;15.132;2023-06-26T00:55:16;4.80;;;2.85;;
20928;SDS011;21895;47.072;15.132;2023-06-26T00:57:43;5.72;;;2.78;;
20928;SDS011;21895;47.072;15.132;2023-06-26T01:00:11;4.60;;;2.70;;
20928;SDS011;21895;47.072;15.132;2023-06-26T01:02:39;5.85;;;2.92;;
20928;SDS011;21895;47.072;15.132;2023-06-26T01:05:06;9.50;;;3.10;;
20928;SDS011;21895;47.072;15.132;2023-06-26T01:07:34;6.57;;;3.30;;
20928;SDS011;21895;47.072;15.132;2023-06-26T01:10:06;7.20;;;3.28;;
20928;SDS011;21895;47.072;15.132;2023-06-26T01:12:33;6.87;;;3.05;;
20928;SDS011;21895;47.072;15.132;2023-06-26T01:15:00;6.15;;;2.83;;
20928;SDS011;21895;47.072;15.132;2023-06-26T01:17:28;5.25;;;2.97;;
20928;SDS011;21895;47.072;15.132;2023-06-26T01:19:58;5.30;;;3.37;;
20928;SDS011;21895;47.072;15.132;2023-06-26T01:27:44;5.12;;;2.62;;
20928;SDS011;21895;47.072;15.132;2023-06-26T01:30:14;4.65;;;2.37;;
20928;SDS011;21895;47.072;15.132;2023-06-26T01:32:43;6.50;;;2.92;;
20928;SDS011;21895;47.072;15.132;2023-06-26T01:35:11;7.05;;;3.35;;
20928;SDS011;21895;47.072;15.132;2023-06-26T01:37:40;8.95;;;3.37;;
20928;SDS011;21895;47.072;15.132;2023-06-26T01:40:06;7.57;;;3.72;;
20928;SDS011;21895;47.072;15.132;2023-06-26T01:42:35;8.10;;;3.67;;
20928;SDS011;21895;47.072;15.132;2023-06-26T01:45:10;6.62;;;2.80;;
20928;SDS011;21895;47.072;15.132;2023-06-26T01:47:50;7.15;;;3.03;;
20928;SDS011;21895;47.072;15.132;2023-06-26T01:50:20;5.97;;;2.80;;
20928;SDS011;21895;47.072;15.132;2023-06-26T01:53:36;8.07;;;3.62;;
20928;SDS011;21895;47.072;15.132;2023-06-26T01:56:14;12.00;;;3.60;;
20928;SDS011;21895;47.072;15.132;2023-06-26T01:58:45;8.07;;;3.20;;
20928;SDS011;21895;47.072;15.132;2023-06-26T02:01:13;7.97;;;3.00;;
20928;SDS011;21895;47.072;15.132;2023-06-26T02:03:40;7.82;;;3.55;;
20928;SDS011;21895;47.072;15.132;2023-06-26T02:06:07;7.30;;;3.58;;
20928;SDS011;21895;47.072;15.132;2023-06-26T02:08:33;10.45;;;3.37;;
20928;SDS011;21895;47.072;15.132;2023-06-26T02:11:00;7.70;;;3.50;;
20928;SDS011;21895;47.072;15.132;2023-06-26T02:13:26;8.65;;;3.55;;
20928;SDS011;21895;47.072;15.132;2023-06-26T02:15:53;7.43;;;3.40;;
20928;SDS011;21895;47.072;15.132;2023-06-26T02:18:20;6.15;;;3.22;;
20928;SDS011;21895;47.072;15.132;2023-06-26T02:20:49;9.23;;;4.00;;
20928;SDS011;21895;47.072;15.132;2023-06-26T02:23:16;7.37;;;3.30;;
20928;SDS011;21895;47.072;15.132;2023-06-26T02:25:43;7.65;;;3.75;;
20928;SDS011;21895;47.072;15.132;2023-06-26T02:28:09;8.40;;;3.80;;
20928;SDS011;21895;47.072;15.132;2023-06-26T02:30:36;6.62;;;3.20;;
20928;SDS011;21895;47.072;15.132;2023-06-26T02:33:03;6.85;;;3.33;;
20928;SDS011;21895;47.072;15.132;2023-06-26T02:35:29;8.82;;;3.78;;
20928;SDS011;21895;47.072;15.132;2023-06-26T02:37:58;6.25;;;3.08;;
20928;SDS011;21895;47.072;15.132;2023-06-26T02:40:24;6.18;;;2.97;;
20928;SDS011;21895;47.072;15.132;2023-06-26T02:42:51;6.10;;;2.90;;
20928;SDS011;21895;47.072;15.132;2023-06-26T02:45:18;5.75;;;2.55;;
20928;SDS011;21895;47.072;15.132;2023-06-26T02:47:44;6.20;;;2.87;;
20928;SDS011;21895;47.072;15.132;2023-06-26T02:50:11;6.95;;;2.62;;
20928;SDS011;21895;47.072;15.132;2023-06-26T02:52:37;5.80;;;2.40;;
20928;SDS011;21895;47.072;15.132;2023-06-26T02:55:04;4.97;;;2.33;;
20928;SDS011;21895;47.072;15.132;2023-06-26T02:57:31;12.88;;;2.75;;
20928;SDS011;21895;47.072;15.132;2023-06-26T02:59:58;4.55;;;2.45;;
20928;SDS011;21895;47.072;15.132;2023-06-26T03:02:24;8.40;;;3.40;;
20928;SDS011;21895;47.072;15.132;2023-06-26T03:04:51;7.50;;;3.22;;
20928;SDS011;21895;47.072;15.132;2023-06-26T03:07:18;7.25;;;3.85;;
20928;SDS011;21895;47.072;15.132;2023-06-26T03:09:45;9.82;;;3.67;;
20928;SDS011;21895;47.072;15.132;2023-06-26T03:12:11;7.72;;;3.50;;
20928;SDS011;21895;47.072;15.132;2023-06-26T03:14:38;7.70;;;3.50;;
20928;SDS011;21895;47.072;15.132;2023-06-26T03:17:04;6.30;;;3.33;;
20928;SDS011;21895;47.072;15.132;2023-06-26T03:19:32;8.07;;;3.72;;
20928;SDS011;21895;47.072;15.132;2023-06-26T03:21:59;5.40;;;2.83;;
20928;SDS011;21895;47.072;15.132;2023-06-26T03:24:25;7.03;;;2.75;;
20928;SDS011;21895;47.072;15.132;2023-06-26T03:26:52;3.35;;;2.40;;
20928;SDS011;21895;47.072;15.132;2023-06-26T03:29:18;4.28;;;2.60;;
20928;SDS011;21895;47.072;15.132;2023-06-26T03:31:45;6.50;;;3.10;;
20928;SDS011;21895;47.072;15.132;2023-06-26T03:34:12;3.65;;;2.10;;
20928;SDS011;21895;47.072;15.132;2023-06-26T03:36:38;5.95;;;2.92;;
20928;SDS011;21895;47.072;15.132;2023-06-26T03:39:05;7.95;;;3.47;;
20928;SDS011;21895;47.072;15.132;2023-06-26T03:41:31;8.25;;;3.85;;
20928;SDS011;21895;47.072;15.132;2023-06-26T03:43:58;10.10;;;3.85;;
20928;SDS011;21895;47.072;15.132;2023-06-26T03:46:25;6.40;;;3.28;;
20928;SDS011;21895;47.072;15.132;2023-06-26T03:48:52;7.80;;;3.83;;
20928;SDS011;21895;47.072;15.132;2023-06-26T03:51:19;7.18;;;2.97;;
20928;SDS011;21895;47.072;15.132;2023-06-26T03:53:45;8.70;;;3.92;;
20928;SDS011;21895;47.072;15.132;2023-06-26T03:56:12;6.37;;;2.60;;
20928;SDS011;21895;47.072;15.132;2023-06-26T03:58:39;6.40;;;3.05;;
20928;SDS011;21895;47.072;15.132;2023-06-26T04:01:06;7.05;;;3.40;;
20928;SDS011;21895;47.072;15.132;2023-06-26T04:03:32;5.53;;;3.10;;
20928;SDS011;21895;47.072;15.132;2023-06-26T04:05:59;7.25;;;3.00;;
20928;SDS011;21895;47.072;15.132;2023-06-26T04:08:26;9.00;;;3.30;;
20928;SDS011;21895;47.072;15.132;2023-06-26T04:10:53;5.40;;;2.65;;
20928;SDS011;21895;47.072;15.132;2023-06-26T04:13:20;5.82;;;2.75;;
20928;SDS011;21895;47.072;15.132;2023-06-26T04:15:47;5.10;;;2.78;;
20928;SDS011;21895;47.072;15.132;2023-06-26T04:18:13;4.75;;;3.00;;
20928;SDS011;21895;47.072;15.132;2023-06-26T04:20:41;4.65;;;2.80;;
20928;SDS011;21895;47.072;15.132;2023-06-26T04:23:34;6.90;;;2.85;;
20928;SDS011;21895;47.072;15.132;2023-06-26T04:26:01;5.62;;;3.08;;
20928;SDS011;21895;47.072;15.132;2023-06-26T04:28:28;16.37;;;3.55;;
20928;SDS011;21895;47.072;15.132;2023-06-26T04:30:55;6.60;;;3.80;;
20928;SDS011;21895;47.072;15.132;2023-06-26T04:33:21;12.95;;;3.62;;
20928;SDS011;21895;47.072;15.132;2023-06-26T04:35:48;5.65;;;3.12;;
20928;SDS011;21895;47.072;15.132;2023-06-26T04:38:15;7.70;;;3.60;;
20928;SDS011;21895;47.072;15.132;2023-06-26T04:40:42;7.30;;;3.12;;
20928;SDS011;21895;47.072;15.132;2023-06-26T04:43:08;7.53;;;3.40;;
20928;SDS011;21895;47.072;15.132;2023-06-26T04:45:35;4.50;;;2.72;;
20928;SDS011;21895;47.072;15.132;2023-06-26T04:48:02;5.93;;;3.40;;
20928;SDS011;21895;47.072;15.132;2023-06-26T04:50:30;4.97;;;3.03;;
20928;SDS011;21895;47.072;15.132;2023-06-26T04:52:56;7.68;;;3.83;;
20928;SDS011;21895;47.072;15.132;2023-06-26T04:55:23;7.57;;;4.07;;
20928;SDS011;21895;47.072;15.132;2023-06-26T04:57:50;8.95;;;4.00;;
20928;SDS011;21895;47.072;15.132;2023-06-26T05:00:17;5.05;;;2.92;;
20928;SDS011;21895;47.072;15.132;2023-06-26T05:02:44;4.57;;;2.75;;
20928;SDS011;21895;47.072;15.132;2023-06-26T05:05:11;5.85;;;3.10;;
20928;SDS011;21895;47.072;15.132;2023-06-26T05:07:38;7.35;;;3.37;;
20928;SDS011;21895;47.072;15.132;2023-06-26T05:10:07;6.25;;;3.55;;
20928;SDS011;21895;47.072;15.132;2023-06-26T05:12:34;5.28;;;3.12;;
20928;SDS011;21895;47.072;15.132;2023-06-26T05:15:00;7.68;;;3.05;;
20928;SDS011;21895;47.072;15.132;2023-06-26T05:17:27;9.55;;;3.67;;
20928;SDS011;21895;47.072;15.132;2023-06-26T05:19:54;5.95;;;3.30;;
20928;SDS011;21895;47.072;15.132;2023-06-26T05:22:20;7.65;;;3.33;;
20928;SDS011;21895;47.072;15.132;2023-06-26T05:24:47;6.40;;;3.33;;
20928;SDS011;21895;47.072;15.132;2023-06-26T05:27:17;11.35;;;3.70;;
20928;SDS011;21895;47.072;15.132;2023-06-26T05:29:47;5.35;;;3.40;;
20928;SDS011;21895;47.072;15.132;2023-06-26T05:32:15;7.55;;;3.28;;
20928;SDS011;21895;47.072;15.132;2023-06-26T05:34:46;7.57;;;3.92;;
20928;SDS011;21895;47.072;15.132;2023-06-26T05:37:18;7.82;;;3.28;;
20928;SDS011;21895;47.072;15.132;2023-06-26T05:39:47;9.90;;;4.10;;
20928;SDS011;21895;47.072;15.132;2023-06-26T05:42:14;7.28;;;3.62;;
20928;SDS011;21895;47.072;15.132;2023-06-26T05:44:42;7.20;;;3.67;;
20928;SDS011;21895;47.072;15.132;2023-06-26T05:47:08;6.30;;;3.25;;
20928;SDS011;21895;47.072;15.132;2023-06-26T05:49:35;7.75;;;3.60;;
20928;SDS011;21895;47.072;15.132;2023-06-26T05:52:02;5.78;;;3.58;;
20928;SDS011;21895;47.072;15.132;2023-06-26T05:54:29;4.82;;;3.05;;
20928;SDS011;21895;47.072;15.132;2023-06-26T05:56:57;6.43;;;3.37;;
20928;SDS011;21895;47.072;15.132;2023-06-26T05:59:25;9.00;;;3.58;;
20928;SDS011;21895;47.072;15.132;2023-06-26T06:01:53;7.75;;;3.50;;
20928;SDS011;21895;47.072;15.132;2023-06-26T06:04:19;7.60;;;3.90;;
20928;SDS011;21895;47.072;15.132;2023-06-26T06:06:46;5.05;;;3.30;;
20928;SDS011;21895;47.072;15.132;2023-06-26T06:09:13;8.48;;;3.62;;
20928;SDS011;21895;47.072;15.132;2023-06-26T06:11:40;7.95;;;3.40;;
20928;SDS011;21895;47.072;15.132;2023-06-26T06:14:07;7.03;;;3.78;;
20928;SDS011;21895;47.072;15.132;2023-06-26T06:16:33;8.40;;;3.90;;
20928;SDS011;21895;47.072;15.132;2023-06-26T06:19:00;8.63;;;3.58;;
20928;SDS011;21895;47.072;15.132;2023-06-26T06:21:28;10.25;;;3.58;;
20928;SDS011;21895;47.072;15.132;2023-06-26T06:23:55;7.62;;;3.42;;
20928;SDS011;21895;47.072;15.132;2023-06-26T06:26:22;6.75;;;3.87;;
20928;SDS011;21895;47.072;15.132;2023-06-26T06:28:48;7.60;;;3.95;;
20928;SDS011;21895;47.072;15.132;2023-06-26T06:31:15;7.70;;;3.85;;
20928;SDS011;21895;47.072;15.132;2023-06-26T06:33:42;6.70;;;3.90;;
20928;SDS011;21895;47.072;15.132;2023-06-26T06:36:08;6.80;;;3.87;;
20928;SDS011;21895;47.072;15.132;2023-06-26T06:38:35;6.85;;;3.53;;
20928;SDS011;21895;47.072;15.132;2023-06-26T06:41:01;6.97;;;3.92;;
20928;SDS011;21895;47.072;15.132;2023-06-26T06:43:28;8.68;;;3.62;;
20928;SDS011;21895;47.072;15.132;2023-06-26T06:45:54;8.10;;;4.32;;
20928;SDS011;21895;47.072;15.132;2023-06-26T06:48:21;7.60;;;4.37;;
20928;SDS011;21895;47.072;15.132;2023-06-26T06:50:47;8.38;;;3.47;;
20928;SDS011;21895;47.072;15.132;2023-06-26T06:53:14;8.35;;;4.05;;
20928;SDS011;21895;47.072;15.132;2023-06-26T06:55:41;11.70;;;4.62;;
20928;SDS011;21895;47.072;15.132;2023-06-26T06:58:07;8.40;;;3.85;;
20928;SDS011;21895;47.072;15.132;2023-06-26T07:00:34;11.63;;;4.20;;
20928;SDS011;21895;47.072;15.132;2023-06-26T07:03:00;8.10;;;4.12;;
20928;SDS011;21895;47.072;15.132;2023-06-26T07:05:27;7.45;;;4.25;;
20928;SDS011;21895;47.072;15.132;2023-06-26T07:07:53;8.77;;;4.37;;
20928;SDS011;21895;47.072;15.132;2023-06-26T07:10:20;6.85;;;4.15;;
20928;SDS011;21895;47.072;15.132;2023-06-26T07:12:47;7.37;;;4.15;;
20928;SDS011;21895;47.072;15.132;2023-06-26T07:15:13;10.38;;;4.57;;
20928;SDS011;21895;47.072;15.132;2023-06-26T07:17:40;10.40;;;4.57;;
20928;SDS011;21895;47.072;15.132;2023-06-26T07:20:07;8.25;;;3.65;;
20928;SDS011;21895;47.072;15.132;2023-06-26T07:22:36;7.03;;;3.95;;
20928;SDS011;21895;47.072;15.132;2023-06-26T07:25:02;6.12;;;3.62;;
20928;SDS011;21895;47.072;15.132;2023-06-26T07:27:30;5.65;;;3.67;;
20928;SDS011;21895;47.072;15.132;2023-06-26T07:29:56;6.62;;;4.00;;
20928;SDS011;21895;47.072;15.132;2023-06-26T07:32:23;6.37;;;3.80;;
20928;SDS011;21895;47.072;15.132;2023-06-26T07:34:50;5.30;;;3.50;;
20928;SDS011;21895;47.072;15.132;2023-06-26T07:37:17;7.78;;;3.97;;
20928;SDS011;21895;47.072;15.132;2023-06-26T07:39:44;9.30;;;4.37;;
20928;SDS011;21895;47.072;15.132;2023-06-26T07:42:11;5.32;;;3.70;;
20928;SDS011;21895;47.072;15.132;2023-06-26T07:44:37;7.28;;;4.18;;
20928;SDS011;21895;47.072;15.132;2023-06-26T07:47:04;6.22;;;3.83;;
20928;SDS011;21895;47.072;15.132;2023-06-26T07:49:30;8.00;;;4.00;;
20928;SDS011;21895;47.072;15.132;2023-06-26T07:51:57;5.68;;;3.55;;
20928;SDS011;21895;47.072;15.132;2023-06-26T07:54:24;6.18;;;3.70;;
20928;SDS011;21895;47.072;15.132;2023-06-26T07:57:00;9.10;;;3.92;;
20928;SDS011;21895;47.072;15.132;2023-06-26T07:59:30;7.80;;;3.70;;
20928;SDS011;21895;47.072;15.132;2023-06-26T08:01:57;7.25;;;3.65;;
20928;SDS011;21895;47.072;15.132;2023-06-26T08:04:25;6.55;;;3.83;;
20928;SDS011;21895;47.072;15.132;2023-06-26T08:06:55;8.80;;;3.65;;
20928;SDS011;21895;47.072;15.132;2023-06-26T08:09:24;5.75;;;3.67;;
20928;SDS011;21895;47.072;15.132;2023-06-26T08:11:54;7.90;;;4.15;;
20928;SDS011;21895;47.072;15.132;2023-06-26T08:14:22;5.60;;;3.55;;
20928;SDS011;21895;47.072;15.132;2023-06-26T08:16:49;7.60;;;4.15;;
20928;SDS011;21895;47.072;15.132;2023-06-26T08:19:16;6.75;;;3.65;;
20928;SDS011;21895;47.072;15.132;2023-06-26T08:21:43;6.32;;;3.70;;
20928;SDS011;21895;47.072;15.132;2023-06-26T08:24:11;5.75;;;3.70;;
20928;SDS011;21895;47.072;15.132;2023-06-26T08:26:38;6.03;;;3.80;;
20928;SDS011;21895;47.072;15.132;2023-06-26T08:29:05;8.10;;;4.15;;
20928;SDS011;21895;47.072;15.132;2023-06-26T08:31:38;10.32;;;3.97;;
20928;SDS011;21895;47.072;15.132;2023-06-26T08:34:06;5.15;;;3.28;;
20928;SDS011;21895;47.072;15.132;2023-06-26T08:36:33;5.47;;;3.60;;
20928;SDS011;21895;47.072;15.132;2023-06-26T08:39:00;4.93;;;3.15;;
20928;SDS011;21895;47.072;15.132;2023-06-26T08:41:28;6.25;;;3.53;;
20928;SDS011;21895;47.072;15.132;2023-06-26T08:43:55;5.45;;;3.58;;
20928;SDS011;21895;47.072;15.132;2023-06-26T08:46:21;6.35;;;2.83;;
20928;SDS011;21895;47.072;15.132;2023-06-26T08:48:49;4.40;;;3.10;;
20928;SDS011;21895;47.072;15.132;2023-06-26T08:51:23;6.25;;;3.47;;
20928;SDS011;21895;47.072;15.132;2023-06-26T08:54:00;4.53;;;3.10;;
20928;SDS011;21895;47.072;15.132;2023-06-26T08:56:35;5.90;;;3.30;;
20928;SDS011;21895;47.072;15.132;2023-06-26T08:59:06;6.85;;;3.12;;
20928;SDS011;21895;47.072;15.132;2023-06-26T09:01:36;6.15;;;3.47;;
20928;SDS011;21895;47.072;15.132;2023-06-26T09:04:04;5.53;;;3.47;;
20928;SDS011;21895;47.072;15.132;2023-06-26T09:06:31;5.37;;;3.22;;
20928;SDS011;21895;47.072;15.132;2023-06-26T09:08:58;5.72;;;2.95;;
20928;SDS011;21895;47.072;15.132;2023-06-26T09:11:25;6.97;;;3.12;;
20928;SDS011;21895;47.072;15.132;2023-06-26T09:13:51;4.45;;;2.87;;
20928;SDS011;21895;47.072;15.132;2023-06-26T09:16:18;5.30;;;3.35;;
20928;SDS011;21895;47.072;15.132;2023-06-26T09:18:52;8.65;;;3.50;;
20928;SDS011;21895;47.072;15.132;2023-06-26T09:21:19;7.32;;;3.20;;
20928;SDS011;21895;47.072;15.132;2023-06-26T09:23:49;5.53;;;3.20;;
20928;SDS011;21895;47.072;15.132;2023-06-26T09:26:15;6.62;;;3.45;;
20928;SDS011;21895;47.072;15.132;2023-06-26T09:28:42;4.28;;;3.12;;
20928;SDS011;21895;47.072;15.132;2023-06-26T09:31:09;5.53;;;3.33;;
20928;SDS011;21895;47.072;15.132;2023-06-26T09:33:36;4.82;;;3.25;;
20928;SDS011;21895;47.072;15.132;2023-06-26T09:36:07;6.25;;;3.70;;
20928;SDS011;21895;47.072;15.132;2023-06-26T09:38:44;6.87;;;3.90;;
20928;SDS011;21895;47.072;15.132;2023-06-26T09:41:11;7.57;;;3.80;;
20928;SDS011;21895;47.072;15.132;2023-06-26T09:43:50;6.37;;;3.58;;
20928;SDS011;21895;47.072;15.132;2023-06-26T09:46:17;5.97;;;3.85;;
20928;SDS011;21895;47.072;15.132;2023-06-26T09:48:58;5.85;;;3.55;;
20928;SDS011;21895;47.072;15.132;2023-06-26T09:51:35;6.15;;;3.47;;
20928;SDS011;21895;47.072;15.132;2023-06-26T09:54:05;5.78;;;3.50;;
20928;SDS011;21895;47.072;15.132;2023-06-26T09:56:32;7.18;;;3.75;;
20928;SDS011;21895;47.072;15.132;2023-06-26T09:59:00;5.78;;;3.40;;
20928;SDS011;21895;47.072;15.132;2023-06-26T10:01:30;6.65;;;3.58;;
20928;SDS011;21895;47.072;15.132;2023-06-26T10:03:58;5.45;;;3.08;;
20928;SDS011;21895;47.072;15.132;2023-06-26T10:06:33;4.75;;;3.33;;
20928;SDS011;21895;47.072;15.132;2023-06-26T10:09:04;5.97;;;3.70;;
20928;SDS011;21895;47.072;15.132;2023-06-26T10:11:41;5.65;;;3.67;;
20928;SDS011;21895;47.072;15.132;2023-06-26T10:15:45;14.00;;;3.30;;
20928;SDS011;21895;47.072;15.132;2023-06-26T10:18:13;5.10;;;3.22;;
20928;SDS011;21895;47.072;15.132;2023-06-26T10:20:45;5.90;;;3.15;;
20928;SDS011;21895;47.072;15.132;2023-06-26T10:23:16;5.65;;;3.20;;
20928;SDS011;21895;47.072;15.132;2023-06-26T10:25:46;4.32;;;3.05;;
20928;SDS011;21895;47.072;15.132;2023-06-26T10:28:19;5.70;;;3.65;;
20928;SDS011;21895;47.072;15.132;2023-06-26T10:30:48;6.47;;;3.67;;
20928;SDS011;21895;47.072;15.132;2023-06-26T10:33:18;5.40;;;3.42;;
20928;SDS011;21895;47.072;15.132;2023-06-26T10:35:46;4.87;;;3.28;;
20928;SDS011;21895;47.072;15.132;2023-06-26T10:38:13;5.43;;;3.47;;
20928;SDS011;21895;47.072;15.132;2023-06-26T10:40:40;6.68;;;3.35;;
20928;SDS011;21895;47.072;15.132;2023-06-26T10:43:17;5.60;;;3.33;;
20928;SDS011;21895;47.072;15.132;2023-06-26T10:45:47;5.30;;;3.42;;
20928;SDS011;21895;47.072;15.132;2023-06-26T10:48:20;4.35;;;2.92;;
20928;SDS011;21895;47.072;15.132;2023-06-26T10:50:48;5.12;;;3.17;;
20928;SDS011;21895;47.072;15.132;2023-06-26T10:53:21;5.05;;;3.12;;
20928;SDS011;21895;47.072;15.132;2023-06-26T10:56:03;4.97;;;2.85;;
20928;SDS011;21895;47.072;15.132;2023-06-26T10:58:33;5.18;;;3.25;;
20928;SDS011;21895;47.072;15.132;2023-06-26T11:01:14;3.53;;;2.92;;
20928;SDS011;21895;47.072;15.132;2023-06-26T11:06:44;4.87;;;3.40;;
20928;SDS011;21895;47.072;15.132;2023-06-26T11:09:17;5.12;;;3.37;;
20928;SDS011;21895;47.072;15.132;2023-06-26T11:11:55;5.35;;;3.40;;
20928;SDS011;21895;47.072;15.132;2023-06-26T11:14:24;4.35;;;3.10;;
20928;SDS011;21895;47.072;15.132;2023-06-26T11:16:54;7.15;;;2.67;;
20928;SDS011;21895;47.072;15.132;2023-06-26T11:19:23;6.25;;;3.03;;
20928;SDS011;21895;47.072;15.132;2023-06-26T11:21:59;5.05;;;3.40;;
20928;SDS011;21895;47.072;15.132;2023-06-26T11:24:28;5.43;;;3.08;;
20928;SDS011;21895;47.072;15.132;2023-06-26T11:26:59;4.45;;;2.80;;
20928;SDS011;21895;47.072;15.132;2023-06-26T11:29:28;4.47;;;2.78;;
20928;SDS011;21895;47.072;15.132;2023-06-26T11:31:58;4.65;;;2.85;;
20928;SDS011;21895;47.072;15.132;2023-06-26T11:34:31;3.95;;;2.62;;
20928;SDS011;21895;47.072;15.132;2023-06-26T11:36:58;6.30;;;3.37;;
20928;SDS011;21895;47.072;15.132;2023-06-26T11:39:26;5.93;;;3.20;;
20928;SDS011;21895;47.072;15.132;2023-06-26T11:41:53;4.93;;;2.85;;
20928;SDS011;21895;47.072;15.132;2023-06-26T11:44:20;3.70;;;2.70;;
20928;SDS011;21895;47.072;15.132;2023-06-26T11:46:47;4.85;;;2.78;;
20928;SDS011;21895;47.072;15.132;2023-06-26T11:49:20;5.07;;;3.00;;
20928;SDS011;21895;47.072;15.132;2023-06-26T11:51:48;4.60;;;2.92;;
20928;SDS011;21895;47.072;15.132;2023-06-26T11:54:15;4.32;;;2.72;;
20928;SDS011;21895;47.072;15.132;2023-06-26T11:56:58;3.60;;;2.83;;
20928;SDS011;21895;47.072;15.132;2023-06-26T12:00:10;5.62;;;3.12;;
20928;SDS011;21895;47.072;15.132;2023-06-26T12:02:38;5.75;;;3.37;;
20928;SDS011;21895;47.072;15.132;2023-06-26T12:05:05;3.87;;;2.72;;
20928;SDS011;21895;47.072;15.132;2023-06-26T12:07:33;4.40;;;2.92;;
20928;SDS011;21895;47.072;15.132;2023-06-26T12:10:03;5.43;;;3.22;;
20928;SDS011;21895;47.072;15.132;2023-06-26T12:12:31;4.25;;;2.53;;
20928;SDS011;21895;47.072;15.132;2023-06-26T12:14:59;3.95;;;2.60;;
20928;SDS011;21895;47.072;15.132;2023-06-26T12:17:26;5.25;;;3.08;;
20928;SDS011;21895;47.072;15.132;2023-06-26T12:19:53;3.53;;;2.70;;
20928;SDS011;21895;47.072;15.132;2023-06-26T12:22:19;4.32;;;3.00;;
20928;SDS011;21895;47.072;15.132;2023-06-26T12:24:46;4.95;;;3.33;;
20928;SDS011;21895;47.072;15.132;2023-06-26T12:27:14;5.72;;;3.10;;
20928;SDS011;21895;47.072;15.132;2023-06-26T12:30:03;4.22;;;2.40;;
20928;SDS011;21895;47.072;15.132;2023-06-26T12:32:31;4.57;;;3.03;;
20928;SDS011;21895;47.072;15.132;2023-06-26T12:34:57;4.03;;;2.70;;
20928;SDS011;21895;47.072;15.132;2023-06-26T12:37:24;6.35;;;3.33;;
20928;SDS011;21895;47.072;15.132;2023-06-26T12:39:54;5.05;;;3.05;;
20928;SDS011;21895;47.072;15.132;2023-06-26T12:42:23;3.95;;;2.70;;
20928;SDS011;21895;47.072;15.132;2023-06-26T12:44:52;3.87;;;2.53;;
20928;SDS011;21895;47.072;15.132;2023-06-26T12:47:28;4.05;;;2.95;;
20928;SDS011;21895;47.072;15.132;2023-06-26T12:49:56;4.32;;;2.87;;
20928;SDS011;21895;47.072;15.132;2023-06-26T12:52:23;3.95;;;2.65;;
20928;SDS011;21895;47.072;15.132;2023-06-26T12:54:53;4.85;;;2.90;;
20928;SDS011;21895;47.072;15.132;2023-06-26T12:57:21;4.05;;;2.80;;
20928;SDS011;21895;47.072;15.132;2023-06-26T12:59:48;3.25;;;2.30;;
20928;SDS011;21895;47.072;15.132;2023-06-26T13:02:15;3.90;;;2.67;;
20928;SDS011;21895;47.072;15.132;2023-06-26T13:04:41;4.15;;;2.53;;
20928;SDS011;21895;47.072;15.132;2023-06-26T13:07:10;4.87;;;2.87;;
20928;SDS011;21895;47.072;15.132;2023-06-26T13:09:36;6.55;;;2.50;;
20928;SDS011;21895;47.072;15.132;2023-06-26T13:12:05;5.15;;;3.20;;
20928;SDS011;21895;47.072;15.132;2023-06-26T13:14:34;4.32;;;2.78;;
20928;SDS011;21895;47.072;15.132;2023-06-26T13:17:00;5.30;;;3.17;;
20928;SDS011;21895;47.072;15.132;2023-06-26T13:19:28;4.65;;;3.05;;
20928;SDS011;21895;47.072;15.132;2023-06-26T13:21:55;5.20;;;3.00;;
20928;SDS011;21895;47.072;15.132;2023-06-26T13:24:22;5.10;;;2.87;;
20928;SDS011;21895;47.072;15.132;2023-06-26T13:26:49;4.93;;;3.28;;
20928;SDS011;21895;47.072;15.132;2023-06-26T13:29:16;5.20;;;2.90;;
20928;SDS011;21895;47.072;15.132;2023-06-26T13:31:45;6.18;;;3.08;;
20928;SDS011;21895;47.072;15.132;2023-06-26T13:34:22;4.05;;;3.05;;
20928;SDS011;21895;47.072;15.132;2023-06-26T13:36:49;4.93;;;2.85;;
20928;SDS011;21895;47.072;15.132;2023-06-26T13:39:16;5.30;;;3.28;;
20928;SDS011;21895;47.072;15.132;2023-06-26T13:41:43;4.68;;;2.70;;
20928;SDS011;21895;47.072;15.132;2023-06-26T13:44:10;5.85;;;2.83;;
20928;SDS011;21895;47.072;15.132;2023-06-26T13:46:56;3.97;;;2.87;;
20928;SDS011;21895;47.072;15.132;2023-06-26T13:49:22;3.75;;;2.72;;
20928;SDS011;21895;47.072;15.132;2023-06-26T13:51:49;4.55;;;3.15;;
20928;SDS011;21895;47.072;15.132;2023-06-26T13:54:16;3.83;;;2.87;;
20928;SDS011;21895;47.072;15.132;2023-06-26T13:56:43;3.12;;;2.70;;
20928;SDS011;21895;47.072;15.132;2023-06-26T13:59:10;5.07;;;3.08;;
20928;SDS011;21895;47.072;15.132;2023-06-26T14:01:37;6.95;;;2.92;;
20928;SDS011;21895;47.072;15.132;2023-06-26T14:04:04;5.50;;;3.30;;
20928;SDS011;21895;47.072;15.132;2023-06-26T14:06:31;4.10;;;2.85;;
20928;SDS011;21895;47.072;15.132;2023-06-26T14:08:58;4.05;;;2.87;;
20928;SDS011;21895;47.072;15.132;2023-06-26T14:11:25;4.80;;;3.08;;
20928;SDS011;21895;47.072;15.132;2023-06-26T14:13:52;3.90;;;2.50;;
20928;SDS011;21895;47.072;15.132;2023-06-26T14:16:18;5.30;;;3.37;;
20928;SDS011;21895;47.072;15.132;2023-06-26T14:18:46;4.37;;;2.87;;
20928;SDS011;21895;47.072;15.132;2023-06-26T14:21:13;4.87;;;3.12;;
20928;SDS011;21895;47.072;15.132;2023-06-26T14:23:40;6.57;;;3.00;;
20928;SDS011;21895;47.072;15.132;2023-06-26T14:26:07;6.65;;;3.55;;
20928;SDS011;21895;47.072;15.132;2023-06-26T14:28:33;5.22;;;3.17;;
20928;SDS011;21895;47.072;15.132;2023-06-26T14:31:00;5.03;;;2.92;;
20928;SDS011;21895;47.072;15.132;2023-06-26T14:33:26;5.07;;;3.17;;
20928;SDS011;21895;47.072;15.132;2023-06-26T14:35:53;4.50;;;3.12;;
20928;SDS011;21895;47.072;15.132;2023-06-26T14:38:19;4.55;;;3.20;;
20928;SDS011;21895;47.072;15.132;2023-06-26T14:40:46;5.25;;;2.92;;
20928;SDS011;21895;47.072;15.132;2023-06-26T14:43:13;4.68;;;3.10;;
20928;SDS011;21895;47.072;15.132;2023-06-26T14:45:40;4.55;;;3.08;;
20928;SDS011;21895;47.072;15.132;2023-06-26T14:48:08;5.62;;;3.55;;
20928;SDS011;21895;47.072;15.132;2023-06-26T14:50:34;5.85;;;2.58;;